createdAt,value
2023-06-28T00:02:35.907Z,4.15
2023-06-28T00:05:21.348Z,3.75
2023-06-28T00:08:06.715Z,3.88
2023-06-28T00:10:52.215Z,3.20
2023-06-28T00:13:37.745Z,3.78
2023-06-28T00:16:23.148Z,3.78
2023-06-28T00:19:08.374Z,3.72
2023-06-28T00:21:55.340Z,4.00
2023-06-28T00:24:40.595Z,4.00
2023-06-28T00:27:26.480Z,4.10
2023-06-28T00:30:12.296Z,3.70
2023-06-28T00:33:00.017Z,4.53
2023-06-28T00:35:45.095Z,4.50
2023-06-28T00:38:30.442Z,4.20
2023-06-28T00:41:15.453Z,4.30
2023-06-28T00:44:01.030Z,4.30
2023-06-28T00:46:46.726Z,4.40
2023-06-28T00:49:35.831Z,4.68
2023-06-28T00:52:21.561Z,4.22
2023-06-28T00:55:07.173Z,4.05
2023-06-28T00:57:52.706Z,4.50
2023-06-28T01:00:37.979Z,4.72
2023-06-28T01:03:23.457Z,4.60
2023-06-28T01:06:10.502Z,4.57
2023-06-28T01:08:55.680Z,5.18
2023-06-28T01:11:41.567Z,4.75
2023-06-28T01:14:26.704Z,4.32
2023-06-28T01:17:12.504Z,4.68
2023-06-28T01:19:57.491Z,5.20
2023-06-28T01:22:51.795Z,5.15
2023-06-28T01:25:37.306Z,4.55
2023-06-28T01:28:23.521Z,5.35
2023-06-28T01:31:08.948Z,5.53
2023-06-28T01:33:54.367Z,5.78
2023-06-28T01:36:39.885Z,5.47
2023-06-28T01:39:26.530Z,5.03
2023-06-28T01:42:11.962Z,5.10
2023-06-28T01:44:57.241Z,4.63
2023-06-28T01:47:42.891Z,5.13
2023-06-28T01:50:29.550Z,5.60
2023-06-28T01:53:15.995Z,5.63
2023-06-28T01:56:01.495Z,4.85
2023-06-28T01:58:47.013Z,4.90
2023-06-28T02:01:32.010Z,5.65
2023-06-28T02:04:17.660Z,5.40
2023-06-28T02:07:02.843Z,5.35
2023-06-28T02:09:48.204Z,5.00
2023-06-28T02:12:33.607Z,5.03
2023-06-28T02:15:19.545Z,4.70
2023-06-28T02:18:05.267Z,4.53
2023-06-28T02:20:51.100Z,4.50
2023-06-28T02:23:36.559Z,4.97
2023-06-28T02:26:21.747Z,4.82
2023-06-28T02:29:07.234Z,5.20
2023-06-28T02:31:52.228Z,5.50
2023-06-28T02:34:37.499Z,5.70
2023-06-28T02:37:22.765Z,6.55
2023-06-28T02:40:08.829Z,7.22
2023-06-28T02:42:54.181Z,6.22
2023-06-28T02:45:39.637Z,5.93
2023-06-28T02:48:24.770Z,6.53
2023-06-28T02:51:10.133Z,6.70
2023-06-28T02:53:55.370Z,6.80
2023-06-28T02:56:40.335Z,6.57
2023-06-28T02:59:25.801Z,6.32
2023-06-28T03:02:11.203Z,6.53
2023-06-28T03:04:56.661Z,6.70
2023-06-28T03:07:42.145Z,5.80
2023-06-28T03:10:27.371Z,6.72
2023-06-28T03:13:12.615Z,6.03
2023-06-28T03:15:57.996Z,6.70
2023-06-28T03:18:43.329Z,5.63
2023-06-28T03:21:28.537Z,5.53
2023-06-28T03:24:13.992Z,6.00
2023-06-28T03:26:59.271Z,5.90
2023-06-28T03:29:44.662Z,6.57
2023-06-28T03:32:30.002Z,5.97
2023-06-28T03:35:15.541Z,6.25
2023-06-28T03:38:00.911Z,6.53
2023-06-28T03:40:46.108Z,7.10
2023-06-28T03:43:31.603Z,6.07
2023-06-28T03:46:17.286Z,6.82
2023-06-28T03:49:02.920Z,6.88
2023-06-28T03:51:48.497Z,6.78
2023-06-28T03:54:33.775Z,6.25
2023-06-28T03:57:19.584Z,8.20
2023-06-28T04:00:06.192Z,7.53
2023-06-28T04:02:51.656Z,7.45
2023-06-28T04:05:36.875Z,7.60
2023-06-28T04:08:22.108Z,7.88
2023-06-28T04:11:07.451Z,7.45
2023-06-28T04:13:52.742Z,7.18
2023-06-28T04:16:38.428Z,7.32
2023-06-28T04:19:23.845Z,6.97
2023-06-28T04:22:09.538Z,7.20
2023-06-28T04:24:55.061Z,7.43
2023-06-28T04:27:40.379Z,6.40
2023-06-28T04:30:25.716Z,7.22
2023-06-28T04:33:10.998Z,6.88
2023-06-28T04:35:57.406Z,6.80
2023-06-28T04:38:42.980Z,6.72
2023-06-28T04:41:28.873Z,7.43
2023-06-28T04:44:14.410Z,7.03
2023-06-28T04:46:59.606Z,6.45
2023-06-28T04:49:50.587Z,7.30
2023-06-28T04:52:36.208Z,7.00
2023-06-28T04:55:21.629Z,6.70
2023-06-28T04:58:07.179Z,7.60
2023-06-28T05:00:53.132Z,7.55
2023-06-28T05:03:38.903Z,7.35
2023-06-28T05:06:23.919Z,7.50
2023-06-28T05:09:09.345Z,6.70
2023-06-28T05:11:54.826Z,6.70
2023-06-28T05:14:39.900Z,6.60
2023-06-28T05:17:25.115Z,6.88
2023-06-28T05:20:12.981Z,7.20
2023-06-28T05:23:18.760Z,6.80
2023-06-28T05:26:04.046Z,7.00
2023-06-28T05:28:49.351Z,6.72
2023-06-28T05:31:37.914Z,6.30
2023-06-28T05:34:23.367Z,6.25
2023-06-28T05:37:08.641Z,6.30
2023-06-28T05:39:54.355Z,5.97
2023-06-28T05:42:39.566Z,6.28
2023-06-28T05:45:29.308Z,6.68
2023-06-28T05:48:15.103Z,5.93
2023-06-28T05:51:00.542Z,6.10
2023-06-28T05:53:45.895Z,6.55
2023-06-28T05:56:31.179Z,6.35
2023-06-28T05:59:16.430Z,6.50
2023-06-28T06:02:02.118Z,6.30
2023-06-28T06:04:47.246Z,6.70
2023-06-28T06:07:32.804Z,6.43
2023-06-28T06:10:18.011Z,7.00
2023-06-28T06:13:03.635Z,6.03
2023-06-28T06:15:48.829Z,6.32
2023-06-28T06:18:34.103Z,6.28
2023-06-28T06:21:19.491Z,7.93
2023-06-28T06:24:05.358Z,6.60
2023-06-28T06:26:50.854Z,6.07
2023-06-28T06:29:36.118Z,6.30
2023-06-28T06:32:21.511Z,6.25
2023-06-28T06:35:07.612Z,6.10
2023-06-28T06:37:52.900Z,5.68
2023-06-28T06:40:38.310Z,5.93
2023-06-28T06:43:23.768Z,5.40
2023-06-28T06:46:09.729Z,6.57
2023-06-28T06:48:55.116Z,8.68
2023-06-28T06:51:40.267Z,6.10
2023-06-28T06:54:25.543Z,5.55
2023-06-28T06:57:10.927Z,6.20
2023-06-28T06:59:56.399Z,6.10
2023-06-28T07:02:41.893Z,6.20
2023-06-28T07:05:27.214Z,5.68
2023-06-28T07:08:12.612Z,6.45
2023-06-28T07:10:57.993Z,5.63
2023-06-28T07:13:43.417Z,5.80
2023-06-28T07:16:28.685Z,5.20
2023-06-28T07:19:15.472Z,5.90
2023-06-28T07:22:01.138Z,5.18
2023-06-28T07:24:46.439Z,5.78
2023-06-28T07:27:31.965Z,5.60
2023-06-28T07:30:17.754Z,5.38
2023-06-28T07:33:05.706Z,4.75
2023-06-28T07:35:52.457Z,5.38
2023-06-28T07:38:38.145Z,5.28
2023-06-28T07:41:23.189Z,4.63
2023-06-28T07:44:08.605Z,4.65
2023-06-28T07:46:53.865Z,4.78
2023-06-28T07:49:39.343Z,4.97
2023-06-28T07:52:24.711Z,4.55
2023-06-28T07:55:10.200Z,5.00
2023-06-28T07:57:56.272Z,4.90
2023-06-28T08:00:41.593Z,4.60
2023-06-28T08:03:27.475Z,4.80
2023-06-28T08:06:13.491Z,4.82
2023-06-28T08:08:59.372Z,3.88
2023-06-28T08:11:44.738Z,3.53
2023-06-28T08:14:29.958Z,3.58
2023-06-28T08:17:15.427Z,22.60
2023-06-28T08:20:00.701Z,4.15
2023-06-28T08:22:46.097Z,3.85
2023-06-28T08:25:31.415Z,4.63
2023-06-28T08:28:16.753Z,4.80
2023-06-28T08:31:02.431Z,4.30
2023-06-28T08:33:48.897Z,4.75
2023-06-28T08:36:34.348Z,4.38
2023-06-28T08:39:19.868Z,4.38
2023-06-28T08:42:05.849Z,4.70
2023-06-28T08:44:54.822Z,4.85
2023-06-28T08:47:41.143Z,4.18
2023-06-28T08:50:27.118Z,4.68
2023-06-28T08:53:16.532Z,4.05
2023-06-28T08:56:02.753Z,4.05
2023-06-28T08:58:49.909Z,3.80
2023-06-28T09:01:36.757Z,4.03
2023-06-28T09:04:28.449Z,3.47
2023-06-28T09:07:16.385Z,3.30
2023-06-28T09:10:02.296Z,3.63
2023-06-28T09:12:48.950Z,3.50
2023-06-28T09:15:35.447Z,3.70
2023-06-28T09:18:20.998Z,2.97
2023-06-28T09:21:06.231Z,3.00
2023-06-28T09:23:51.468Z,2.55
2023-06-28T09:26:36.764Z,3.50
2023-06-28T09:29:22.141Z,3.20
2023-06-28T09:32:07.707Z,3.33
2023-06-28T09:34:53.319Z,3.03
2023-06-28T09:37:39.708Z,2.95
2023-06-28T09:40:25.047Z,4.20
2023-06-28T09:43:15.023Z,3.63
2023-06-28T09:46:18.197Z,3.50
2023-06-28T09:49:03.565Z,3.78
2023-06-28T09:52:03.419Z,3.08
2023-06-28T09:54:50.642Z,3.60
2023-06-28T09:57:36.306Z,3.28
2023-06-28T10:00:22.028Z,3.28
2023-06-28T10:03:10.077Z,3.50
2023-06-28T10:05:57.075Z,3.20
2023-06-28T10:08:43.374Z,3.47
2023-06-28T10:11:32.273Z,3.63
2023-06-28T10:14:20.218Z,3.25
2023-06-28T10:17:06.799Z,3.13
2023-06-28T10:19:54.010Z,3.45
2023-06-28T10:22:39.676Z,3.40
2023-06-28T10:25:26.910Z,4.00
2023-06-28T10:28:14.378Z,3.70
2023-06-28T10:30:59.670Z,3.20
2023-06-28T10:33:45.834Z,3.40
2023-06-28T10:36:31.003Z,3.38
2023-06-28T10:39:17.306Z,3.90
2023-06-28T10:42:02.920Z,4.13
2023-06-28T10:44:56.242Z,3.85
2023-06-28T10:47:52.485Z,4.20
2023-06-28T10:50:42.487Z,3.90
2023-06-28T10:53:29.735Z,4.10
2023-06-28T10:56:15.156Z,3.63
2023-06-28T10:59:06.162Z,3.55
2023-06-28T11:01:55.399Z,3.63
2023-06-28T11:04:53.429Z,3.65
2023-06-28T11:07:38.724Z,3.92
2023-06-28T11:10:37.501Z,4.00
2023-06-28T11:13:52.060Z,4.10
2023-06-28T11:16:37.569Z,3.97
2023-06-28T11:19:22.666Z,5.55
2023-06-28T11:22:08.303Z,6.10
2023-06-28T11:24:55.562Z,6.20
2023-06-28T11:27:41.970Z,6.70
2023-06-28T11:31:26.111Z,4.97
2023-06-28T11:34:14.926Z,5.60
2023-06-28T11:37:01.956Z,29.85
2023-06-28T11:39:49.207Z,6.35
2023-06-28T11:42:34.381Z,10.05
2023-06-28T11:45:20.609Z,11.55
2023-06-28T11:48:06.670Z,11.43
2023-06-28T11:51:04.528Z,12.35
2023-06-28T11:53:49.725Z,12.38
2023-06-28T11:56:40.868Z,11.82
2023-06-28T11:59:25.782Z,11.20
2023-06-28T12:02:11.934Z,13.27
2023-06-28T12:05:00.777Z,13.18
2023-06-28T12:07:46.593Z,11.73
2023-06-28T12:10:34.602Z,12.63
2023-06-28T12:13:24.026Z,11.95
2023-06-28T12:16:20.106Z,11.95
2023-06-28T12:19:05.346Z,11.10
2023-06-28T12:21:53.653Z,10.07
2023-06-28T12:24:39.480Z,8.85
2023-06-28T12:27:24.749Z,8.43
2023-06-28T12:30:15.571Z,8.48
2023-06-28T12:33:06.159Z,8.00
2023-06-28T12:35:51.741Z,7.45
2023-06-28T12:38:36.948Z,5.40
2023-06-28T12:41:21.872Z,5.72
2023-06-28T12:44:07.293Z,5.60
2023-06-28T12:46:52.808Z,4.90
2023-06-28T12:49:38.413Z,5.00
2023-06-28T12:52:26.060Z,5.13
2023-06-28T12:55:13.533Z,4.30
2023-06-28T12:57:59.146Z,3.58
2023-06-28T13:00:45.002Z,4.40
2023-06-28T13:03:30.256Z,3.53
2023-06-28T13:06:15.814Z,5.07
2023-06-28T13:09:01.034Z,4.00
2023-06-28T13:11:46.560Z,5.88
2023-06-28T13:14:31.769Z,4.40
2023-06-28T13:17:17.003Z,7.15
2023-06-28T13:20:02.012Z,5.55
2023-06-28T13:22:47.424Z,4.38
2023-06-28T13:25:33.139Z,4.10
2023-06-28T13:28:18.453Z,6.82
2023-06-28T13:31:03.928Z,4.47
2023-06-28T13:33:49.348Z,5.40
2023-06-28T13:36:34.687Z,3.60
2023-06-28T13:39:20.085Z,3.85
2023-06-28T13:42:05.837Z,3.22
2023-06-28T13:44:51.361Z,3.13
2023-06-28T13:47:36.554Z,2.67
2023-06-28T13:50:21.941Z,2.50
2023-06-28T13:53:07.391Z,2.55
2023-06-28T13:55:53.021Z,10.90
2023-06-28T13:58:38.892Z,2.40
2023-06-28T14:01:24.513Z,2.30
2023-06-28T14:04:09.482Z,2.17
2023-06-28T14:06:55.007Z,2.20
2023-06-28T14:09:40.313Z,2.70
2023-06-28T14:12:25.788Z,2.40
2023-06-28T14:15:11.706Z,2.53
2023-06-28T14:17:57.995Z,2.63
2023-06-28T14:20:44.162Z,2.88
2023-06-28T14:23:29.500Z,3.20
2023-06-28T14:26:14.966Z,3.35
2023-06-28T14:29:00.237Z,3.50
2023-06-28T14:31:45.657Z,4.00
2023-06-28T14:34:31.041Z,3.40
2023-06-28T14:37:16.904Z,3.80
2023-06-28T14:40:02.487Z,4.10
2023-06-28T14:42:47.860Z,4.45
2023-06-28T14:45:33.395Z,4.80
2023-06-28T14:48:18.727Z,4.57
2023-06-28T14:51:04.629Z,4.78
2023-06-28T14:53:49.765Z,5.70
2023-06-28T14:56:35.080Z,7.15
2023-06-28T14:59:20.557Z,6.53
2023-06-28T15:02:06.253Z,5.53
2023-06-28T15:04:51.232Z,6.32
2023-06-28T15:07:36.814Z,6.13
2023-06-28T15:10:22.149Z,6.18
2023-06-28T15:13:07.747Z,6.70
2023-06-28T15:15:53.133Z,7.57
2023-06-28T15:18:38.494Z,7.05
2023-06-28T15:21:24.166Z,7.13
2023-06-28T15:24:09.411Z,6.60
2023-06-28T15:26:55.943Z,6.65
2023-06-28T15:29:40.775Z,7.68
2023-06-28T15:32:26.297Z,8.52
2023-06-28T15:35:11.542Z,9.15
2023-06-28T15:37:56.909Z,8.40
2023-06-28T15:40:42.759Z,9.07
2023-06-28T15:43:28.593Z,9.00
2023-06-28T15:46:13.725Z,9.05
2023-06-28T15:48:58.817Z,8.48
2023-06-28T15:51:44.071Z,9.20
2023-06-28T15:54:29.222Z,8.43
2023-06-28T15:57:14.816Z,8.13
2023-06-28T15:59:59.931Z,7.28
2023-06-28T16:02:45.628Z,8.32
2023-06-28T16:05:30.964Z,8.93
2023-06-28T16:08:16.403Z,8.10
2023-06-28T16:11:01.687Z,8.63
2023-06-28T16:13:47.079Z,8.77
2023-06-28T16:16:32.491Z,9.85
2023-06-28T16:19:17.833Z,9.07
2023-06-28T16:22:03.326Z,8.82
2023-06-28T16:24:48.685Z,10.50
2023-06-28T16:27:34.114Z,9.18
2023-06-28T16:30:19.319Z,9.40
2023-06-28T16:33:08.536Z,9.68
2023-06-28T16:35:53.577Z,10.20
2023-06-28T16:38:39.194Z,9.07
2023-06-28T16:41:24.575Z,9.98
2023-06-28T16:44:09.922Z,10.13
2023-06-28T16:46:55.329Z,9.70
2023-06-28T16:49:40.777Z,8.50
2023-06-28T16:52:26.050Z,11.00
2023-06-28T16:55:11.499Z,9.77
2023-06-28T16:57:56.946Z,9.70
2023-06-28T17:00:42.470Z,9.95
2023-06-28T17:03:27.976Z,10.10
2023-06-28T17:06:13.349Z,9.27
2023-06-28T17:08:59.526Z,9.80
2023-06-28T17:11:44.977Z,9.38
2023-06-28T17:14:29.926Z,10.50
2023-06-28T17:17:15.590Z,10.90
2023-06-28T17:20:00.999Z,10.40
2023-06-28T17:22:46.230Z,9.88
2023-06-28T17:25:31.547Z,10.02
2023-06-28T17:28:17.166Z,9.35
2023-06-28T17:31:02.535Z,9.88
2023-06-28T17:33:47.915Z,9.18
2023-06-28T17:36:33.231Z,9.27
2023-06-28T17:39:19.231Z,10.35
2023-06-28T17:42:07.707Z,10.90
2023-06-28T17:44:53.105Z,10.45
2023-06-28T17:47:38.389Z,9.63
2023-06-28T17:50:23.912Z,9.55
2023-06-28T17:53:09.450Z,9.50
2023-06-28T17:55:54.938Z,10.68
2023-06-28T17:58:41.353Z,10.70
2023-06-28T18:01:26.654Z,10.50
2023-06-28T18:04:11.977Z,10.10
2023-06-28T18:06:57.542Z,10.55
2023-06-28T18:09:42.744Z,9.73
2023-06-28T18:12:28.073Z,8.68
2023-06-28T18:15:13.439Z,9.73
2023-06-28T18:17:58.630Z,10.10
2023-06-28T18:20:44.292Z,9.88
2023-06-28T18:23:29.778Z,10.00
2023-06-28T18:26:15.287Z,10.07
2023-06-28T18:29:00.694Z,9.77
2023-06-28T18:31:46.106Z,18.83
2023-06-28T18:34:31.542Z,14.77
2023-06-28T18:37:17.026Z,10.73
2023-06-28T18:40:02.523Z,10.45
2023-06-28T18:42:47.956Z,10.15
2023-06-28T18:45:33.474Z,9.38
2023-06-28T18:48:18.939Z,9.73
2023-06-28T18:51:04.422Z,9.25
2023-06-28T18:53:49.717Z,9.90
2023-06-28T18:56:35.123Z,9.63
2023-06-28T18:59:20.617Z,10.35
2023-06-28T19:02:06.511Z,10.63
2023-06-28T19:04:51.904Z,9.93
2023-06-28T19:07:37.321Z,10.63
2023-06-28T19:10:22.479Z,10.40
2023-06-28T19:13:08.022Z,10.35
2023-06-28T19:15:53.276Z,10.38
2023-06-28T19:18:38.629Z,10.02
2023-06-28T19:21:23.976Z,9.85
2023-06-28T19:24:09.256Z,9.77
2023-06-28T19:26:55.546Z,10.10
2023-06-28T19:29:40.798Z,10.52
2023-06-28T19:32:26.057Z,10.05
2023-06-28T19:35:11.534Z,9.90
2023-06-28T19:37:56.935Z,9.88
2023-06-28T19:40:42.550Z,10.80
2023-06-28T19:43:27.813Z,10.10
2023-06-28T19:46:13.326Z,10.85
2023-06-28T19:48:58.658Z,10.65
2023-06-28T19:51:44.110Z,10.73
2023-06-28T19:54:29.523Z,10.63
2023-06-28T19:57:14.769Z,10.65
2023-06-28T20:00:00.242Z,11.90
2023-06-28T20:02:45.777Z,10.13
2023-06-28T20:05:31.102Z,11.02
2023-06-28T20:08:16.215Z,11.07
2023-06-28T20:11:01.528Z,10.75
2023-06-28T20:13:46.778Z,11.02
2023-06-28T20:16:32.421Z,10.98
2023-06-28T20:19:17.880Z,10.88
2023-06-28T20:22:03.194Z,11.18
2023-06-28T20:24:48.517Z,10.93
2023-06-28T20:27:34.636Z,10.85
2023-06-28T20:30:19.786Z,11.45
2023-06-28T20:33:06.706Z,11.18
2023-06-28T20:35:52.690Z,11.38
2023-06-28T20:38:37.803Z,12.13
2023-06-28T20:41:23.240Z,12.70
2023-06-28T20:44:08.690Z,11.85
2023-06-28T20:46:53.900Z,12.32
2023-06-28T20:49:39.289Z,13.30
2023-06-28T20:52:24.974Z,12.77
2023-06-28T20:55:10.077Z,13.43
2023-06-28T20:57:55.522Z,12.82
2023-06-28T21:00:40.944Z,11.93
2023-06-28T21:03:26.403Z,12.48
2023-06-28T21:06:11.677Z,13.38
2023-06-28T21:08:56.893Z,12.70
2023-06-28T21:11:41.902Z,11.77
2023-06-28T21:14:27.364Z,12.52
2023-06-28T21:17:12.822Z,11.95
2023-06-28T21:19:58.057Z,11.45
2023-06-28T21:22:43.326Z,11.38
2023-06-28T21:25:28.840Z,11.40
2023-06-28T21:28:14.752Z,12.40
2023-06-28T21:31:00.187Z,13.75
2023-06-28T21:33:45.542Z,12.63
2023-06-28T21:36:30.941Z,12.73
2023-06-28T21:39:16.431Z,12.90
2023-06-28T21:42:01.694Z,12.77
2023-06-28T21:44:47.254Z,12.57
2023-06-28T21:47:32.762Z,12.57
2023-06-28T21:50:18.033Z,12.70
2023-06-28T21:53:03.610Z,13.38
2023-06-28T21:55:49.063Z,13.05
2023-06-28T21:58:34.231Z,13.13
2023-06-28T22:01:19.601Z,13.80
2023-06-28T22:04:05.161Z,14.43
2023-06-28T22:07:05.263Z,14.77
2023-06-28T22:09:51.688Z,15.15
2023-06-28T22:12:38.677Z,15.30
2023-06-28T22:15:27.420Z,13.45
2023-06-28T22:18:12.602Z,12.75
2023-06-28T22:20:58.214Z,14.98
2023-06-28T22:23:43.444Z,14.38
2023-06-28T22:26:28.799Z,14.45
2023-06-28T22:29:14.289Z,14.70
2023-06-28T22:31:59.593Z,13.65
2023-06-28T22:34:46.401Z,12.95
2023-06-28T22:37:31.437Z,12.68
2023-06-28T22:40:16.735Z,13.38
2023-06-28T22:43:02.217Z,13.52
2023-06-28T22:45:50.557Z,14.05
2023-06-28T22:48:35.946Z,15.75
2023-06-28T22:51:21.026Z,14.88
2023-06-28T22:54:10.500Z,14.38
2023-06-28T22:56:56.241Z,14.48
2023-06-28T22:59:41.653Z,14.80
2023-06-28T23:02:27.054Z,14.38
2023-06-28T23:05:12.509Z,15.88
2023-06-28T23:07:57.815Z,14.95
2023-06-28T23:10:43.687Z,15.20
2023-06-28T23:13:29.121Z,14.60
2023-06-28T23:16:14.447Z,14.85
2023-06-28T23:19:00.891Z,15.10
2023-06-28T23:21:46.459Z,15.95
2023-06-28T23:24:31.768Z,14.85
2023-06-28T23:27:17.134Z,15.25
2023-06-28T23:30:02.770Z,14.73
2023-06-28T23:32:47.867Z,13.95
2023-06-28T23:35:35.051Z,14.90
2023-06-28T23:38:20.389Z,15.20
2023-06-28T23:41:06.780Z,15.18
2023-06-28T23:43:52.211Z,14.52
2023-06-28T23:46:37.664Z,14.45
2023-06-28T23:49:23.099Z,13.95
2023-06-28T23:52:09.045Z,14.07
2023-06-28T23:54:54.306Z,14.60
2023-06-28T23:57:39.231Z,14.18
